createdAt,value
2023-03-29T00:01:35.921Z,1.90
2023-03-29T00:04:06.441Z,2.17
2023-03-29T00:06:33.555Z,2.70
2023-03-29T00:09:00.145Z,2.72
2023-03-29T00:11:27.333Z,2.65
2023-03-29T00:13:53.791Z,2.53
2023-03-29T00:16:20.378Z,1.60
2023-03-29T00:18:46.855Z,2.05
2023-03-29T00:21:13.312Z,2.70
2023-03-29T00:23:39.813Z,1.88
2023-03-29T00:26:08.136Z,1.40
2023-03-29T00:28:35.045Z,2.15
2023-03-29T00:31:11.743Z,1.63
2023-03-29T00:33:38.907Z,1.85
2023-03-29T00:36:06.043Z,1.95
2023-03-29T00:38:32.766Z,2.05
2023-03-29T00:40:59.579Z,3.30
2023-03-29T00:43:26.464Z,1.90
2023-03-29T00:45:52.955Z,2.03
2023-03-29T00:48:24.644Z,1.70
2023-03-29T00:50:56.237Z,2.88
2023-03-29T00:53:42.812Z,1.98
2023-03-29T00:56:12.261Z,2.05
2023-03-29T00:58:44.508Z,2.15
2023-03-29T01:01:15.442Z,2.53
2023-03-29T01:03:46.370Z,2.53
2023-03-29T01:06:14.461Z,3.58
2023-03-29T01:08:52.980Z,3.17
2023-03-29T01:11:52.809Z,1.60
2023-03-29T01:14:23.128Z,1.63
2023-03-29T01:16:49.643Z,2.03
2023-03-29T01:19:18.961Z,2.25
2023-03-29T01:21:54.891Z,2.05
2023-03-29T01:24:46.130Z,2.90
2023-03-29T01:27:31.729Z,2.00
2023-03-29T01:30:02.043Z,1.88
2023-03-29T01:32:56.954Z,2.15
2023-03-29T01:35:57.525Z,2.33
2023-03-29T01:38:45.886Z,2.17
2023-03-29T01:41:12.520Z,1.67
2023-03-29T01:44:28.394Z,1.90
2023-03-29T01:47:00.752Z,2.92
2023-03-29T01:49:34.502Z,1.80
2023-03-29T01:52:08.062Z,2.20
2023-03-29T01:54:40.935Z,1.98
2023-03-29T01:57:07.580Z,2.50
2023-03-29T01:59:34.706Z,1.60
2023-03-29T02:02:02.814Z,1.75
2023-03-29T02:04:31.671Z,2.40
2023-03-29T02:06:59.295Z,2.05
2023-03-29T02:09:25.810Z,1.88
2023-03-29T02:11:52.301Z,2.65
2023-03-29T02:14:19.269Z,2.80
2023-03-29T02:16:46.338Z,3.47
2023-03-29T02:19:13.319Z,2.67
2023-03-29T02:22:01.478Z,1.45
2023-03-29T02:24:27.948Z,2.03
2023-03-29T02:26:54.409Z,2.08
2023-03-29T02:29:20.870Z,1.13
2023-03-29T02:31:51.791Z,2.13
2023-03-29T02:34:27.272Z,1.55
2023-03-29T02:36:56.644Z,5.07
2023-03-29T02:39:25.229Z,3.35
2023-03-29T02:41:52.115Z,2.53
2023-03-29T02:44:20.612Z,2.97
2023-03-29T02:46:49.117Z,2.67
2023-03-29T02:49:15.645Z,2.22
2023-03-29T02:51:42.112Z,2.70
2023-03-29T02:54:19.485Z,1.60
2023-03-29T02:56:50.038Z,1.83
2023-03-29T02:59:17.681Z,2.33
2023-03-29T03:01:44.855Z,1.67
2023-03-29T03:04:11.971Z,3.08
2023-03-29T03:06:38.501Z,3.95
2023-03-29T03:09:05.922Z,3.13
2023-03-29T03:11:33.234Z,2.33
2023-03-29T03:13:59.879Z,1.58
2023-03-29T03:16:26.427Z,2.40
2023-03-29T03:18:54.834Z,6.13
2023-03-29T03:21:22.167Z,2.35
2023-03-29T03:23:49.290Z,3.05
2023-03-29T03:26:16.051Z,2.25
2023-03-29T03:28:43.116Z,2.28
2023-03-29T03:31:09.625Z,3.13
2023-03-29T03:33:36.085Z,2.45
2023-03-29T03:36:06.256Z,4.50
2023-03-29T03:38:33.293Z,1.70
2023-03-29T03:41:00.909Z,2.65
2023-03-29T03:43:28.634Z,3.22
2023-03-29T03:45:55.729Z,2.28
2023-03-29T03:48:22.979Z,3.33
2023-03-29T03:50:50.360Z,2.40
2023-03-29T03:53:16.906Z,2.65
2023-03-29T03:55:50.675Z,1.65
2023-03-29T03:58:17.642Z,3.03
2023-03-29T04:00:45.116Z,2.58
2023-03-29T04:03:11.757Z,2.35
2023-03-29T04:05:41.818Z,2.40
2023-03-29T04:08:08.498Z,3.13
2023-03-29T04:10:35.127Z,2.42
2023-03-29T04:13:05.154Z,2.95
2023-03-29T04:15:32.557Z,2.10
2023-03-29T04:17:59.576Z,1.95
2023-03-29T04:20:27.032Z,2.92
2023-03-29T04:22:53.709Z,2.38
2023-03-29T04:25:21.463Z,3.25
2023-03-29T04:27:49.087Z,3.03
2023-03-29T04:30:15.736Z,3.30
2023-03-29T04:32:42.302Z,2.65
2023-03-29T04:35:09.057Z,2.80
2023-03-29T04:37:35.546Z,3.13
2023-03-29T04:40:02.495Z,2.45
2023-03-29T04:42:29.347Z,5.40
2023-03-29T04:44:55.884Z,2.22
2023-03-29T04:47:22.388Z,3.88
2023-03-29T04:49:48.878Z,2.83
2023-03-29T04:52:15.343Z,3.50
2023-03-29T04:54:41.840Z,2.83
2023-03-29T04:57:08.418Z,5.30
2023-03-29T04:59:35.031Z,3.47
2023-03-29T05:02:03.019Z,2.50
2023-03-29T05:04:29.774Z,2.40
2023-03-29T05:06:57.290Z,2.15
2023-03-29T05:09:24.608Z,3.63
2023-03-29T05:11:51.379Z,2.60
2023-03-29T05:14:17.885Z,2.08
2023-03-29T05:16:44.495Z,3.60
2023-03-29T05:19:11.407Z,2.70
2023-03-29T05:21:38.521Z,1.77
2023-03-29T05:24:05.904Z,2.45
2023-03-29T05:26:32.397Z,2.92
2023-03-29T05:28:58.893Z,3.45
2023-03-29T05:31:25.400Z,2.10
2023-03-29T05:33:51.978Z,4.18
2023-03-29T05:36:19.212Z,2.10
2023-03-29T05:38:46.551Z,3.17
2023-03-29T05:41:13.875Z,2.20
2023-03-29T05:43:40.339Z,2.80
2023-03-29T05:46:07.329Z,4.97
2023-03-29T05:48:33.968Z,3.45
2023-03-29T05:51:00.596Z,1.98
2023-03-29T05:53:28.495Z,2.78
2023-03-29T05:55:55.195Z,2.83
2023-03-29T05:58:21.860Z,2.63
2023-03-29T06:00:52.089Z,3.17
2023-03-29T06:03:21.849Z,2.58
2023-03-29T06:05:49.931Z,3.75
2023-03-29T06:08:16.485Z,2.80
2023-03-29T06:10:43.012Z,3.80
2023-03-29T06:13:09.482Z,4.35
2023-03-29T06:15:35.981Z,2.95
2023-03-29T06:18:03.536Z,3.22
2023-03-29T06:20:30.121Z,3.50
2023-03-29T06:22:56.855Z,6.00
2023-03-29T06:25:23.406Z,2.40
2023-03-29T06:27:49.874Z,2.15
2023-03-29T06:30:16.897Z,2.05
2023-03-29T06:32:43.474Z,3.70
2023-03-29T06:35:10.240Z,6.38
2023-03-29T06:37:37.068Z,4.97
2023-03-29T06:40:06.333Z,3.25
2023-03-29T06:42:33.039Z,3.42
2023-03-29T06:44:59.502Z,4.00
2023-03-29T06:47:30.784Z,2.75
2023-03-29T06:49:57.380Z,3.92
2023-03-29T06:52:23.840Z,2.65
2023-03-29T06:54:50.552Z,3.47
2023-03-29T06:57:17.733Z,3.50
2023-03-29T06:59:44.348Z,4.43
2023-03-29T07:02:12.461Z,3.42
2023-03-29T07:04:39.563Z,2.33
2023-03-29T07:07:07.698Z,4.40
2023-03-29T07:09:35.875Z,4.20
2023-03-29T07:12:02.435Z,3.75
2023-03-29T07:14:30.035Z,3.83
2023-03-29T07:16:58.326Z,2.65
2023-03-29T07:19:27.212Z,3.45
2023-03-29T07:21:54.270Z,3.83
2023-03-29T07:24:21.413Z,4.00
2023-03-29T07:27:00.002Z,5.47
2023-03-29T07:29:29.558Z,2.63
2023-03-29T07:31:56.376Z,5.22
2023-03-29T07:34:22.843Z,4.65
2023-03-29T07:36:49.321Z,5.05
2023-03-29T07:39:15.824Z,3.40
2023-03-29T07:41:42.295Z,2.13
2023-03-29T07:44:09.404Z,6.00
2023-03-29T07:46:36.347Z,2.78
2023-03-29T07:49:03.563Z,2.50
2023-03-29T07:51:30.135Z,4.63
2023-03-29T07:53:56.602Z,3.97
2023-03-29T07:56:23.324Z,3.10
2023-03-29T07:58:49.820Z,3.72
2023-03-29T08:01:18.786Z,3.63
2023-03-29T08:03:45.935Z,2.33
2023-03-29T08:06:12.486Z,4.32
2023-03-29T08:08:39.024Z,1.60
2023-03-29T08:11:07.133Z,4.90
2023-03-29T08:13:33.648Z,2.92
2023-03-29T08:16:00.225Z,3.72
2023-03-29T08:18:26.735Z,3.15
2023-03-29T08:20:53.264Z,5.20
2023-03-29T08:23:19.715Z,4.50
2023-03-29T08:25:47.045Z,3.15
2023-03-29T08:28:13.660Z,4.78
2023-03-29T08:30:40.161Z,4.80
2023-03-29T08:33:06.697Z,2.95
2023-03-29T08:35:33.284Z,3.17
2023-03-29T08:37:59.799Z,2.97
2023-03-29T08:40:27.229Z,5.22
2023-03-29T08:43:04.746Z,4.70
2023-03-29T08:45:35.438Z,3.97
2023-03-29T08:48:22.094Z,4.97
2023-03-29T08:50:56.467Z,4.35
2023-03-29T08:55:50.842Z,4.35
2023-03-29T08:58:24.334Z,2.80
2023-03-29T09:00:52.017Z,3.67
2023-03-29T09:03:26.143Z,2.42
2023-03-29T09:06:06.706Z,6.88
2023-03-29T09:08:37.242Z,4.88
2023-03-29T09:11:26.003Z,4.22
2023-03-29T09:14:10.898Z,3.80
2023-03-29T09:16:58.523Z,4.18
2023-03-29T09:19:46.504Z,5.05
2023-03-29T09:22:19.728Z,3.08
2023-03-29T09:24:53.972Z,4.57
2023-03-29T09:30:02.425Z,4.75
2023-03-29T09:32:36.440Z,4.20
2023-03-29T09:35:21.551Z,5.72
2023-03-29T09:37:48.564Z,6.60
2023-03-29T09:40:21.262Z,4.88
2023-03-29T09:42:48.437Z,2.83
2023-03-29T09:45:14.942Z,3.92
2023-03-29T09:47:55.498Z,3.47
2023-03-29T09:50:35.240Z,7.07
2023-03-29T09:53:01.742Z,2.97
2023-03-29T09:55:32.324Z,2.63
2023-03-29T09:58:00.730Z,3.97
2023-03-29T10:00:27.279Z,5.32
2023-03-29T10:02:54.654Z,5.60
2023-03-29T10:05:21.909Z,3.88
2023-03-29T10:07:54.292Z,3.33
2023-03-29T10:10:27.788Z,6.57
2023-03-29T10:12:56.841Z,7.53
2023-03-29T10:15:29.613Z,3.55
2023-03-29T10:18:05.571Z,7.33
2023-03-29T10:20:34.721Z,5.40
2023-03-29T10:23:01.186Z,6.45
2023-03-29T10:25:31.476Z,6.55
2023-03-29T10:28:13.045Z,4.10
2023-03-29T10:30:40.046Z,4.75
2023-03-29T10:33:06.947Z,3.50
2023-03-29T10:35:38.066Z,4.82
2023-03-29T10:38:07.560Z,3.90
2023-03-29T10:40:35.135Z,6.18
2023-03-29T10:43:12.208Z,3.25
2023-03-29T10:45:39.000Z,8.35
2023-03-29T10:48:06.979Z,7.80
2023-03-29T10:50:35.034Z,3.42
2023-03-29T10:53:02.238Z,6.25
2023-03-29T10:55:33.749Z,4.20
2023-03-29T10:58:12.391Z,6.03
2023-03-29T11:01:05.724Z,4.75
2023-03-29T11:04:07.057Z,4.95
2023-03-29T11:07:12.524Z,4.72
2023-03-29T11:09:57.060Z,5.07
2023-03-29T11:12:44.502Z,4.93
2023-03-29T11:15:48.116Z,5.28
2023-03-29T11:18:27.177Z,4.03
2023-03-29T11:21:11.674Z,6.65
2023-03-29T11:23:44.106Z,3.05
2023-03-29T11:26:20.867Z,5.55
2023-03-29T11:28:56.348Z,4.78
2023-03-29T11:31:41.368Z,5.05
2023-03-29T11:34:17.539Z,4.40
2023-03-29T11:36:44.558Z,4.15
2023-03-29T11:39:42.263Z,4.82
2023-03-29T11:42:20.724Z,4.38
2023-03-29T11:44:47.491Z,6.53
2023-03-29T11:47:18.857Z,4.57
2023-03-29T11:49:45.408Z,4.25
2023-03-29T11:52:15.202Z,4.53
2023-03-29T11:54:53.728Z,4.53
2023-03-29T11:57:29.090Z,4.22
2023-03-29T12:00:05.962Z,4.22
2023-03-29T12:02:39.355Z,6.55
2023-03-29T12:05:20.237Z,5.88
2023-03-29T12:08:23.015Z,5.13
2023-03-29T12:11:27.394Z,7.50
2023-03-29T12:13:57.264Z,7.13
2023-03-29T12:16:47.229Z,5.57
2023-03-29T12:19:23.168Z,3.05
2023-03-29T12:21:50.810Z,7.55
2023-03-29T12:24:17.946Z,5.80
2023-03-29T12:26:48.720Z,4.57
2023-03-29T12:29:37.429Z,6.40
2023-03-29T12:32:28.301Z,5.57
2023-03-29T12:35:16.157Z,3.95
2023-03-29T12:37:58.254Z,4.90
2023-03-29T12:40:26.185Z,4.88
2023-03-29T12:42:54.230Z,5.68
2023-03-29T12:45:28.435Z,5.30
2023-03-29T12:47:54.945Z,4.38
2023-03-29T12:50:47.729Z,5.05
2023-03-29T12:53:18.914Z,4.85
2023-03-29T12:55:51.117Z,5.50
2023-03-29T12:58:39.750Z,6.78
2023-03-29T13:01:23.827Z,6.15
2023-03-29T13:03:57.670Z,6.82
2023-03-29T13:06:29.061Z,5.13
2023-03-29T13:09:00.528Z,6.82
2023-03-29T13:11:31.505Z,5.50
2023-03-29T13:13:58.178Z,3.90
2023-03-29T13:16:34.291Z,9.27
2023-03-29T13:19:13.931Z,5.85
2023-03-29T13:21:59.108Z,7.00
2023-03-29T13:25:01.232Z,9.88
2023-03-29T13:27:47.777Z,5.20
2023-03-29T13:30:31.755Z,7.00
2023-03-29T13:33:23.121Z,6.80
2023-03-29T13:36:30.218Z,5.32
2023-03-29T13:39:01.606Z,7.32
2023-03-29T13:41:28.775Z,7.97
2023-03-29T13:43:55.762Z,11.45
2023-03-29T13:46:35.198Z,5.18
2023-03-29T13:49:25.039Z,7.75
2023-03-29T13:51:54.454Z,5.45
2023-03-29T13:54:40.615Z,6.07
2023-03-29T13:57:19.086Z,5.05
2023-03-29T14:00:00.480Z,7.70
2023-03-29T14:02:36.224Z,6.22
2023-03-29T14:05:04.153Z,7.95
2023-03-29T14:07:30.642Z,5.45
2023-03-29T14:09:58.140Z,8.73
2023-03-29T14:12:24.751Z,4.07
2023-03-29T14:14:58.910Z,3.83
2023-03-29T14:17:26.028Z,4.07
2023-03-29T14:19:53.321Z,9.60
2023-03-29T14:22:20.377Z,4.57
2023-03-29T14:24:49.149Z,9.32
2023-03-29T14:27:15.801Z,6.13
2023-03-29T14:29:44.313Z,4.57
2023-03-29T14:32:17.808Z,6.30
2023-03-29T14:34:48.145Z,6.13
2023-03-29T14:37:18.735Z,7.00
2023-03-29T14:39:45.713Z,6.53
2023-03-29T14:42:16.227Z,6.05
2023-03-29T14:44:42.732Z,7.95
2023-03-29T14:47:09.218Z,6.25
2023-03-29T14:49:35.764Z,5.93
2023-03-29T14:52:02.260Z,8.60
2023-03-29T14:54:29.677Z,5.30
2023-03-29T14:56:56.241Z,4.80
2023-03-29T14:59:36.717Z,6.03
2023-03-29T15:02:03.522Z,10.60
2023-03-29T15:04:36.094Z,7.78
2023-03-29T15:07:05.476Z,5.35
2023-03-29T15:09:34.104Z,6.97
2023-03-29T15:12:01.884Z,7.45
2023-03-29T15:14:33.612Z,5.72
2023-03-29T15:17:33.462Z,7.00
2023-03-29T15:20:24.091Z,6.95
2023-03-29T15:23:00.372Z,6.50
2023-03-29T15:25:37.716Z,7.45
2023-03-29T15:28:04.378Z,11.07
2023-03-29T15:30:41.847Z,8.15
2023-03-29T15:33:16.307Z,7.65
2023-03-29T15:35:43.660Z,6.72
2023-03-29T15:38:12.297Z,8.52
2023-03-29T15:40:38.819Z,6.82
2023-03-29T15:43:05.929Z,6.00
2023-03-29T15:45:32.485Z,5.93
2023-03-29T15:48:01.958Z,8.27
2023-03-29T15:50:28.651Z,6.60
2023-03-29T15:53:08.674Z,7.88
2023-03-29T15:55:44.631Z,6.30
2023-03-29T15:58:15.495Z,7.47
2023-03-29T16:00:43.462Z,6.60
2023-03-29T16:03:14.813Z,8.07
2023-03-29T16:05:44.916Z,6.95
2023-03-29T16:08:12.117Z,6.15
2023-03-29T16:10:39.017Z,8.18
2023-03-29T16:13:05.644Z,9.43
2023-03-29T16:15:32.355Z,5.57
2023-03-29T16:17:58.913Z,8.60
2023-03-29T16:20:25.704Z,7.22
2023-03-29T16:22:54.136Z,10.35
2023-03-29T16:25:22.737Z,8.18
2023-03-29T16:27:49.381Z,8.05
2023-03-29T16:30:16.048Z,8.43
2023-03-29T16:32:42.792Z,7.55
2023-03-29T16:35:22.454Z,7.40
2023-03-29T16:37:48.979Z,6.32
2023-03-29T16:40:16.502Z,4.00
2023-03-29T16:42:42.972Z,7.47
2023-03-29T16:45:12.544Z,7.22
2023-03-29T16:47:39.448Z,6.32
2023-03-29T16:50:08.076Z,6.97
2023-03-29T16:52:34.697Z,8.18
2023-03-29T16:55:01.674Z,6.45
2023-03-29T16:57:28.557Z,7.80
2023-03-29T16:59:55.751Z,9.00
2023-03-29T17:02:22.220Z,8.57
2023-03-29T17:04:48.779Z,7.97
2023-03-29T17:07:15.697Z,9.75
2023-03-29T17:09:42.525Z,6.00
2023-03-29T17:12:09.109Z,6.35
2023-03-29T17:14:35.858Z,8.68
2023-03-29T17:17:02.315Z,6.93
2023-03-29T17:19:28.777Z,7.88
2023-03-29T17:21:55.296Z,5.40
2023-03-29T17:24:21.759Z,8.80
2023-03-29T17:26:48.227Z,8.60
2023-03-29T17:29:14.701Z,7.32
2023-03-29T17:31:47.454Z,8.45
2023-03-29T17:34:15.220Z,8.73
2023-03-29T17:36:41.688Z,8.98
2023-03-29T17:39:09.565Z,6.43
2023-03-29T17:41:36.329Z,6.50
2023-03-29T17:44:02.829Z,11.40
2023-03-29T17:46:29.406Z,7.03
2023-03-29T17:48:56.091Z,8.23
2023-03-29T17:51:23.687Z,7.20
2023-03-29T17:53:52.349Z,8.32
2023-03-29T17:56:22.770Z,7.93
2023-03-29T17:58:49.467Z,10.63
2023-03-29T18:01:16.739Z,10.35
2023-03-29T18:03:43.355Z,8.55
2023-03-29T18:06:09.820Z,10.32
2023-03-29T18:08:36.300Z,5.85
2023-03-29T18:11:11.560Z,9.02
2023-03-29T18:13:39.731Z,9.10
2023-03-29T18:16:07.536Z,6.63
2023-03-29T18:18:34.622Z,6.55
2023-03-29T18:21:01.161Z,9.30
2023-03-29T18:23:27.652Z,9.02
2023-03-29T18:26:02.819Z,9.40
2023-03-29T18:28:30.485Z,7.55
2023-03-29T18:30:57.040Z,7.47
2023-03-29T18:33:23.535Z,7.15
2023-03-29T18:35:53.221Z,7.60
2023-03-29T18:38:21.219Z,7.65
2023-03-29T18:40:48.160Z,6.43
2023-03-29T18:43:14.702Z,7.65
2023-03-29T18:45:41.421Z,7.75
2023-03-29T18:48:08.726Z,7.72
2023-03-29T18:50:36.066Z,11.00
2023-03-29T18:53:02.553Z,11.20
2023-03-29T18:55:29.840Z,9.32
2023-03-29T18:57:56.400Z,8.98
2023-03-29T19:00:22.940Z,9.40
2023-03-29T19:02:49.595Z,8.25
2023-03-29T19:05:16.244Z,8.23
2023-03-29T19:07:42.696Z,9.98
2023-03-29T19:10:09.271Z,8.65
2023-03-29T19:12:36.005Z,9.13
2023-03-29T19:15:02.512Z,9.20
2023-03-29T19:17:29.026Z,6.80
2023-03-29T19:19:56.714Z,11.60
2023-03-29T19:22:23.382Z,8.02
2023-03-29T19:24:49.990Z,12.55
2023-03-29T19:27:16.525Z,8.20
2023-03-29T19:29:43.006Z,8.50
2023-03-29T19:32:09.487Z,8.45
2023-03-29T19:34:36.154Z,9.55
2023-03-29T19:37:02.609Z,10.20
2023-03-29T19:39:29.818Z,8.10
2023-03-29T19:41:56.499Z,6.30
2023-03-29T19:44:28.002Z,5.47
2023-03-29T19:46:54.567Z,7.55
2023-03-29T19:49:21.068Z,9.10
2023-03-29T19:51:48.044Z,8.07
2023-03-29T19:54:14.638Z,8.20
2023-03-29T19:56:42.665Z,7.50
2023-03-29T19:59:11.222Z,7.18
2023-03-29T20:01:39.232Z,9.55
2023-03-29T20:04:06.296Z,9.05
2023-03-29T20:06:32.874Z,10.60
2023-03-29T20:08:59.402Z,9.68
2023-03-29T20:11:26.009Z,7.05
2023-03-29T20:13:52.530Z,11.80
2023-03-29T20:16:19.279Z,9.48
2023-03-29T20:18:46.423Z,11.27
2023-03-29T20:21:14.091Z,10.95
2023-03-29T20:23:40.718Z,8.10
2023-03-29T20:26:07.526Z,12.43
2023-03-29T20:28:34.597Z,6.65
2023-03-29T20:31:05.075Z,11.20
2023-03-29T20:33:31.849Z,12.52
2023-03-29T20:35:58.526Z,10.23
2023-03-29T20:38:25.208Z,11.43
2023-03-29T20:40:51.688Z,8.73
2023-03-29T20:43:20.686Z,9.73
2023-03-29T20:45:53.613Z,12.60
2023-03-29T20:48:30.098Z,9.32
2023-03-29T20:50:57.693Z,9.23
2023-03-29T20:53:25.028Z,9.35
2023-03-29T20:55:51.747Z,10.77
2023-03-29T20:58:18.256Z,9.65
2023-03-29T21:00:45.277Z,9.25
2023-03-29T21:03:12.235Z,8.77
2023-03-29T21:05:39.021Z,10.45
2023-03-29T21:08:05.658Z,7.63
2023-03-29T21:10:32.185Z,8.50
2023-03-29T21:13:02.349Z,11.60
2023-03-29T21:15:31.086Z,13.20
2023-03-29T21:17:57.943Z,11.73
2023-03-29T21:20:24.626Z,6.65
2023-03-29T21:22:51.595Z,10.32
2023-03-29T21:25:18.327Z,8.25
2023-03-29T21:27:44.931Z,9.40
2023-03-29T21:30:11.753Z,7.57
2023-03-29T21:32:38.342Z,6.13
2023-03-29T21:35:05.305Z,12.65
2023-03-29T21:37:31.794Z,9.30
2023-03-29T21:39:58.289Z,9.10
2023-03-29T21:42:24.837Z,8.35
2023-03-29T21:44:51.328Z,9.18
2023-03-29T21:47:17.812Z,12.23
2023-03-29T21:49:44.345Z,9.45
2023-03-29T21:52:10.898Z,8.48
2023-03-29T21:54:37.360Z,9.57
2023-03-29T21:57:03.932Z,14.20
2023-03-29T21:59:30.763Z,10.20
2023-03-29T22:01:57.254Z,11.80
2023-03-29T22:04:35.889Z,12.32
2023-03-29T22:07:03.418Z,8.93
2023-03-29T22:09:29.890Z,8.45
2023-03-29T22:11:56.898Z,17.15
2023-03-29T22:14:23.353Z,7.80
2023-03-29T22:16:49.929Z,8.65
2023-03-29T22:19:16.490Z,9.63
2023-03-29T22:21:44.029Z,13.38
2023-03-29T22:24:10.540Z,13.10
2023-03-29T22:26:36.997Z,7.40
2023-03-29T22:29:03.533Z,10.00
2023-03-29T22:31:30.295Z,9.85
2023-03-29T22:33:58.237Z,8.93
2023-03-29T22:36:26.398Z,9.23
2023-03-29T22:38:52.942Z,6.43
2023-03-29T22:41:20.216Z,11.95
2023-03-29T22:43:46.763Z,8.52
2023-03-29T22:46:13.890Z,8.45
2023-03-29T22:48:40.653Z,13.23
2023-03-29T22:51:07.127Z,9.10
2023-03-29T22:53:33.802Z,12.02
2023-03-29T22:56:00.771Z,10.50
2023-03-29T22:58:29.236Z,10.38
2023-03-29T23:00:56.890Z,9.75
2023-03-29T23:03:23.707Z,13.25
2023-03-29T23:05:57.019Z,10.50
2023-03-29T23:08:24.256Z,11.43
2023-03-29T23:10:51.039Z,10.98
2023-03-29T23:13:19.953Z,13.00
2023-03-29T23:15:47.967Z,9.48
2023-03-29T23:18:18.211Z,11.93
2023-03-29T23:20:47.079Z,12.35
2023-03-29T23:23:13.945Z,9.13
2023-03-29T23:25:40.426Z,9.73
2023-03-29T23:28:06.950Z,11.05
2023-03-29T23:30:35.764Z,10.38
2023-03-29T23:33:02.497Z,11.43
2023-03-29T23:35:29.066Z,9.68
2023-03-29T23:37:55.588Z,9.32
2023-03-29T23:40:22.117Z,9.23
2023-03-29T23:42:48.891Z,11.45
2023-03-29T23:45:18.084Z,11.38
2023-03-29T23:47:44.979Z,9.60
2023-03-29T23:50:13.408Z,11.07
2023-03-29T23:52:40.722Z,10.82
2023-03-29T23:55:08.512Z,14.65
2023-03-29T23:57:36.909Z,10.73
